Time;durP1;ratioP1;P1;durP2;ratioP2;P2;SDS_P1;SDS_P2;PMS_P1;PMS_P2;Temp;Humidity;BMP_temperature;BMP_pressure;BME280_temperature;BME280_humidity;BME280_pressure;Samples;Min_cycle;Max_cycle;Signal;HPM_P1;HPM_P2
2021/08/19 00:00:32;;;;;;;1.00;0.70;;;;;;;25.49;59.25;98061.19;5032894;28;20231;-70
2021/08/19 00:03:02;;;;;;;1.07;0.83;;;;;;;25.61;58.81;98056.06;5034521;28;20240;-70
2021/08/19 00:05:29;;;;;;;1.00;0.77;;;;;;;25.02;60.58;98056.56;5035361;28;20580;-71
2021/08/19 00:07:57;;;;;;;1.37;1.10;;;;;;;25.39;60.31;98055.84;5032303;28;20212;-71
2021/08/19 00:10:24;;;;;;;1.37;0.80;;;;;;;25.03;61.13;98043.72;5029971;28;20229;-71
2021/08/19 00:12:51;;;;;;;0.90;0.70;;;;;;;25.05;61.35;98045.06;5030951;28;20226;-70
2021/08/19 00:15:19;;;;;;;0.80;0.80;;;;;;;25.14;61.16;98043.28;5029450;28;20207;-71
2021/08/19 00:17:46;;;;;;;1.40;0.90;;;;;;;25.20;61.05;98047.59;5033201;28;20209;-70
2021/08/19 00:20:15;;;;;;;1.53;1.00;;;;;;;24.97;61.65;98040.25;5029241;28;20733;-70
2021/08/19 00:22:42;;;;;;;1.20;0.77;;;;;;;25.25;61.18;98041.25;5032593;28;20235;-71
2021/08/19 00:25:10;;;;;;;2.33;1.00;;;;;;;25.25;61.00;98042.09;5033044;28;20205;-71
2021/08/19 00:27:38;;;;;;;1.00;0.90;;;;;;;25.39;60.36;98039.44;5032892;28;20209;-71
2021/08/19 00:30:06;;;;;;;0.80;0.80;;;;;;;25.45;60.18;98044.56;5025689;28;20310;-70
2021/08/19 00:32:33;;;;;;;1.93;0.80;;;;;;;25.52;60.38;98041.44;5033193;28;20612;-71
2021/08/19 00:35:01;;;;;;;1.07;0.80;;;;;;;25.69;58.49;98036.28;5032998;28;20221;-70
2021/08/19 00:37:31;;;;;;;1.00;0.83;;;;;;;25.95;56.90;98043.00;5032809;28;20211;-71
2021/08/19 00:39:59;;;;;;;0.80;0.80;;;;;;;25.89;57.17;98044.16;5027930;28;20209;-70
2021/08/19 00:42:26;;;;;;;0.90;0.90;;;;;;;25.64;58.40;98042.59;5032973;28;20225;-71
2021/08/19 00:44:53;;;;;;;1.00;0.90;;;;;;;25.82;57.40;98047.25;5032190;28;20205;-71
2021/08/19 00:47:20;;;;;;;0.70;0.70;;;;;;;25.78;57.43;98039.94;5032781;28;20213;-71
2021/08/19 00:49:48;;;;;;;1.07;0.90;;;;;;;25.49;59.47;98034.63;5032246;28;20226;-70
2021/08/19 00:52:16;;;;;;;2.90;0.80;;;;;;;25.50;58.18;98032.72;5032157;28;20227;-70
2021/08/19 00:54:45;;;;;;;1.00;0.80;;;;;;;25.85;57.05;98038.44;5031969;28;20248;-70
2021/08/19 00:57:13;;;;;;;1.33;0.70;;;;;;;25.14;60.57;98028.84;5032481;28;20201;-70
2021/08/19 00:59:41;;;;;;;0.73;0.60;;;;;;;25.84;57.61;98033.31;5032232;28;20200;-70
2021/08/19 01:02:09;;;;;;;1.20;0.80;;;;;;;24.91;62.00;98016.00;5032218;28;20704;-70
2021/08/19 01:04:38;;;;;;;1.43;1.00;;;;;;;25.34;60.26;98031.31;5037439;28;20200;-70
2021/08/19 01:07:07;;;;;;;1.37;1.10;;;;;;;24.96;60.80;98019.50;5026566;28;20600;-70
2021/08/19 01:09:35;;;;;;;1.63;0.83;;;;;;;25.16;60.88;98029.34;5032066;28;20256;-70
2021/08/19 01:12:05;;;;;;;0.80;0.80;;;;;;;24.67;63.00;98016.03;5030123;28;20222;-70
2021/08/19 01:14:33;;;;;;;1.00;0.90;;;;;;;25.23;60.36;98029.81;5032574;28;20205;-70
2021/08/19 01:17:07;;;;;;;1.87;0.70;;;;;;;24.92;61.26;98017.63;5028668;28;20225;-70
2021/08/19 01:19:34;;;;;;;0.70;0.70;;;;;;;25.31;59.29;98016.34;5031688;28;20205;-70
2021/08/19 01:22:02;;;;;;;1.10;0.70;;;;;;;25.36;59.38;98027.19;5031773;28;20225;-70
2021/08/19 01:24:29;;;;;;;1.30;1.10;;;;;;;25.25;59.59;98020.25;5031905;28;20221;-70
2021/08/19 01:26:56;;;;;;;1.00;0.67;;;;;;;25.19;59.98;98023.31;5030590;28;20561;-70
2021/08/19 01:29:25;;;;;;;0.83;0.77;;;;;;;25.32;60.28;98022.59;5031808;28;20827;-70
2021/08/19 01:32:00;;;;;;;1.10;0.80;;;;;;;25.05;62.04;98025.94;5031307;28;20247;-70
2021/08/19 01:34:28;;;;;;;0.93;0.70;;;;;;;24.92;62.05;98017.63;5031175;28;20570;-70
2021/08/19 01:36:55;;;;;;;2.13;0.90;;;;;;;25.09;61.53;98023.44;5031471;28;20575;-70
2021/08/19 01:39:23;;;;;;;1.93;1.00;;;;;;;24.73;62.86;98014.88;5031408;28;20209;-70
2021/08/19 01:41:50;;;;;;;3.37;0.90;;;;;;;25.20;61.89;98022.19;5028996;28;20214;-70
2021/08/19 01:44:18;;;;;;;0.77;0.70;;;;;;;25.12;61.98;98020.94;5031459;28;20208;-70
2021/08/19 01:46:51;;;;;;;2.13;0.90;;;;;;;25.29;60.60;98020.47;5031264;28;20216;-70
2021/08/19 01:49:18;;;;;;;2.47;0.93;;;;;;;25.29;60.03;98023.19;5031630;28;20205;-70
2021/08/19 01:51:46;;;;;;;0.87;0.80;;;;;;;25.38;59.90;98022.22;5030963;28;20248;-70
2021/08/19 01:54:13;;;;;;;1.40;0.90;;;;;;;24.93;62.74;98011.88;5031574;28;20211;-70
2021/08/19 01:56:40;;;;;;;1.10;0.87;;;;;;;25.49;59.63;98017.44;5031259;28;20215;-70
2021/08/19 01:59:08;;;;;;;1.43;0.83;;;;;;;25.47;59.47;98015.00;5031382;28;20202;-70
2021/08/19 02:01:35;;;;;;;0.90;0.70;;;;;;;25.33;59.41;98022.31;5031389;28;20199;-70
2021/08/19 02:04:04;;;;;;;0.93;0.70;;;;;;;25.39;59.46;98009.41;5037028;28;20244;-70
2021/08/19 02:06:32;;;;;;;1.57;0.70;;;;;;;24.89;61.87;98013.56;5031119;28;20250;-70
2021/08/19 02:09:00;;;;;;;1.00;0.90;;;;;;;25.24;60.62;98017.78;5031287;28;20702;-70
2021/08/19 02:11:27;;;;;;;1.03;0.90;;;;;;;25.29;60.42;98017.72;5030735;28;20699;-70
2021/08/19 02:13:54;;;;;;;0.90;0.90;;;;;;;25.05;60.06;98020.50;5031250;28;20230;-70
2021/08/19 02:16:22;;;;;;;1.60;0.77;;;;;;;25.18;60.28;98014.28;5031268;28;20295;-70
2021/08/19 02:18:49;;;;;;;1.60;0.87;;;;;;;24.95;61.60;98009.69;5030869;28;20209;-70
2021/08/19 02:21:18;;;;;;;0.97;0.80;;;;;;;25.20;60.01;98017.56;5031038;28;20258;-70
2021/08/19 02:23:45;;;;;;;1.33;1.00;;;;;;;24.28;64.95;98004.41;5031079;28;20218;-70
2021/08/19 02:26:12;;;;;;;2.40;0.90;;;;;;;25.50;59.03;98013.59;5031052;28;20205;-70
2021/08/19 02:28:40;;;;;;;1.10;0.83;;;;;;;24.94;61.64;98008.03;5031019;28;20209;-70
2021/08/19 02:31:07;;;;;;;1.77;1.00;;;;;;;25.31;59.77;98010.88;5028675;28;20233;-70
2021/08/19 02:33:34;;;;;;;1.90;0.87;;;;;;;25.10;60.27;98014.97;5034666;28;20244;-70
2021/08/19 02:36:02;;;;;;;2.23;0.80;;;;;;;24.52;64.93;98005.25;5033666;28;20205;-70
2021/08/19 02:38:31;;;;;;;0.90;0.60;;;;;;;24.83;62.97;98009.28;5034810;28;20228;-70
2021/08/19 02:40:58;;;;;;;0.87;0.80;;;;;;;24.88;62.89;98003.75;5034543;28;20246;-70
2021/08/19 02:43:25;;;;;;;0.73;0.73;;;;;;;25.14;61.33;98009.72;5035220;28;20221;-70
2021/08/19 02:45:52;;;;;;;1.00;0.87;;;;;;;25.17;60.89;98017.31;5034346;28;20688;-70
2021/08/19 02:48:20;;;;;;;2.53;0.93;;;;;;;24.44;65.00;98007.81;5034934;28;21052;-70
2021/08/19 02:50:47;;;;;;;1.17;0.97;;;;;;;25.30;61.08;97997.50;5033974;28;20229;-70
2021/08/19 02:53:14;;;;;;;0.97;0.97;;;;;;;24.91;62.07;97999.63;5034357;28;20225;-70
2021/08/19 02:55:43;;;;;;;1.33;0.77;;;;;;;25.33;60.05;97996.91;5034184;28;20216;-70
2021/08/19 02:58:10;;;;;;;0.97;0.93;;;;;;;25.36;60.15;97999.03;5034645;28;20697;-70
2021/08/19 03:00:37;;;;;;;2.33;1.00;;;;;;;24.61;64.15;97986.34;5034410;28;20659;-70
2021/08/19 03:03:05;;;;;;;1.87;0.80;;;;;;;24.71;63.56;97988.97;5035884;28;20233;-70
2021/08/19 03:05:32;;;;;;;1.20;0.87;;;;;;;24.15;65.95;97987.91;5038103;28;20657;-69
2021/08/19 03:07:59;;;;;;;1.00;0.90;;;;;;;23.38;71.49;97979.84;5033271;28;20241;-69
2021/08/19 03:10:26;;;;;;;1.93;0.90;;;;;;;24.97;63.33;97995.72;5034231;28;20237;-70
2021/08/19 03:12:55;;;;;;;1.90;1.20;;;;;;;24.45;66.54;97987.59;5034332;28;20232;-70
2021/08/19 03:15:22;;;;;;;2.10;1.10;;;;;;;25.25;61.16;97992.06;5034159;28;20212;-70
2021/08/19 03:17:49;;;;;;;1.93;0.90;;;;;;;25.68;59.14;97996.34;5034101;28;20207;-70
2021/08/19 03:20:17;;;;;;;1.67;0.90;;;;;;;25.48;59.42;97991.22;5034068;28;20197;-70
2021/08/19 03:22:46;;;;;;;1.10;1.00;;;;;;;25.06;60.76;97991.25;5033572;28;20239;-70
2021/08/19 03:25:13;;;;;;;2.10;0.90;;;;;;;25.76;58.07;97988.31;5033954;28;20285;-70
2021/08/19 03:27:40;;;;;;;1.73;1.00;;;;;;;25.46;57.62;97993.44;5033995;28;20208;-70
2021/08/19 03:30:11;;;;;;;1.23;1.10;;;;;;;25.09;60.39;97996.13;5034168;28;20202;-70
2021/08/19 03:32:40;;;;;;;1.60;0.83;;;;;;;25.13;59.82;97997.16;5030332;28;20323;-70
2021/08/19 03:35:08;;;;;;;2.23;1.10;;;;;;;25.50;58.79;97986.25;5031580;28;20709;-70
2021/08/19 03:37:36;;;;;;;3.90;1.20;;;;;;;24.77;63.03;97987.81;5033634;28;20611;-70
2021/08/19 03:40:04;;;;;;;1.17;0.97;;;;;;;24.94;62.05;97996.31;5033453;28;20212;-70
2021/08/19 03:42:31;;;;;;;1.40;1.07;;;;;;;25.30;60.25;97992.03;5032351;28;20248;-70
2021/08/19 03:44:58;;;;;;;1.13;1.00;;;;;;;25.11;60.67;97994.72;5032971;28;20209;-70
2021/08/19 03:47:27;;;;;;;1.83;1.20;;;;;;;25.42;59.19;97995.94;5033650;28;20216;-70
2021/08/19 03:49:54;;;;;;;1.03;0.97;;;;;;;25.33;59.16;97994.19;5033394;28;20690;-70
2021/08/19 03:52:22;;;;;;;0.87;0.80;;;;;;;25.32;58.87;97998.81;5033402;28;20605;-70
2021/08/19 03:54:50;;;;;;;1.20;1.00;;;;;;;25.28;60.95;97994.25;5033066;28;20666;-69
2021/08/19 03:57:17;;;;;;;1.97;0.97;;;;;;;24.67;63.17;97982.50;5033364;28;20208;-70
2021/08/19 03:59:44;;;;;;;2.00;1.10;;;;;;;25.16;60.25;97993.84;5033156;28;20312;-70
2021/08/19 04:02:12;;;;;;;1.83;0.93;;;;;;;24.44;64.10;97991.44;5033631;28;20306;-70
2021/08/19 04:04:40;;;;;;;1.27;0.90;;;;;;;24.12;66.43;97985.78;5036368;28;20209;-70
2021/08/19 04:07:08;;;;;;;1.10;1.00;;;;;;;23.49;68.73;97978.66;5027526;28;20209;-70
2021/08/19 04:09:35;;;;;;;1.40;1.00;;;;;;;24.16;66.21;97989.53;5030488;28;20216;-70
2021/08/19 04:12:02;;;;;;;3.20;1.00;;;;;;;24.79;62.53;97994.63;5032548;28;20258;-70
2021/08/19 04:14:31;;;;;;;0.93;0.73;;;;;;;25.10;61.30;97995.84;5029273;28;20204;-70
2021/08/19 04:16:58;;;;;;;2.27;1.07;;;;;;;25.54;59.15;97992.75;5033277;28;20217;-70
2021/08/19 04:19:25;;;;;;;3.30;1.13;;;;;;;24.84;62.62;97985.53;5029432;28;20223;-70
2021/08/19 04:21:54;;;;;;;1.07;1.00;;;;;;;24.95;61.17;97996.03;5032962;28;20204;-69
2021/08/19 04:24:21;;;;;;;1.33;0.90;;;;;;;24.71;62.69;97989.78;5029449;28;20208;-70
2021/08/19 04:26:49;;;;;;;2.00;1.13;;;;;;;24.98;61.50;97992.72;5032679;28;20213;-70
2021/08/19 04:29:16;;;;;;;1.53;1.10;;;;;;;25.28;60.33;97988.78;5027367;28;20205;-70
2021/08/19 04:31:43;;;;;;;1.20;1.00;;;;;;;25.12;59.94;97984.59;5029696;28;20225;-70
2021/08/19 04:34:10;;;;;;;2.30;1.03;;;;;;;24.96;59.36;97991.38;5032317;28;20205;-70
2021/08/19 04:36:38;;;;;;;1.93;1.20;;;;;;;25.00;59.81;97985.06;5032436;28;20673;-70
2021/08/19 04:39:06;;;;;;;3.07;1.23;;;;;;;24.86;61.46;97980.59;5032694;28;20549;-70
2021/08/19 04:41:33;;;;;;;1.43;1.20;;;;;;;25.24;59.84;97977.59;5032041;28;20227;-70
2021/08/19 04:44:01;;;;;;;1.30;1.20;;;;;;;24.44;62.78;97975.06;5032723;28;20254;-70
2021/08/19 04:46:28;;;;;;;1.70;1.37;;;;;;;25.23;59.55;97977.91;5032496;28;20208;-70
2021/08/19 04:48:55;;;;;;;1.30;1.20;;;;;;;24.28;62.19;97979.06;5032504;28;20331;-70
2021/08/19 04:51:23;;;;;;;2.20;1.17;;;;;;;24.82;59.81;97974.09;5027522;28;20704;-70
2021/08/19 04:53:50;;;;;;;1.20;1.10;;;;;;;24.18;63.13;97963.59;5031888;28;20702;-71
2021/08/19 04:56:21;;;;;;;1.77;1.37;;;;;;;24.72;60.57;97971.50;5031560;28;20202;-70
2021/08/19 04:58:48;;;;;;;1.20;0.80;;;;;;;24.49;60.34;97969.56;5032523;28;20232;-70
2021/08/19 05:01:15;;;;;;;1.20;1.03;;;;;;;24.58;61.42;97965.91;5031231;28;20205;-70
2021/08/19 05:03:43;;;;;;;1.60;1.27;;;;;;;24.10;63.28;97971.59;5033241;28;20237;-70
2021/08/19 05:06:10;;;;;;;2.40;1.13;;;;;;;24.03;63.32;97968.41;5031625;28;20212;-70
2021/08/19 05:08:37;;;;;;;1.47;1.00;;;;;;;23.85;64.72;97972.63;5032536;28;20224;-70
2021/08/19 05:11:04;;;;;;;2.80;1.00;;;;;;;24.05;64.45;97971.66;5031570;28;20229;-70
2021/08/19 05:13:33;;;;;;;1.23;1.00;;;;;;;24.49;61.56;97983.19;5031862;28;20714;-71
2021/08/19 05:16:00;;;;;;;1.67;1.10;;;;;;;24.17;63.02;97970.16;5031929;28;20228;-70
2021/08/19 05:18:28;;;;;;;2.03;1.00;;;;;;;24.47;61.30;97974.50;5031975;28;20205;-70
2021/08/19 05:20:55;;;;;;;3.60;1.13;;;;;;;24.62;60.11;97977.09;5032048;28;20211;-70
2021/08/19 05:23:22;;;;;;;2.07;1.47;;;;;;;25.02;59.33;97982.81;5032176;28;20228;-70
2021/08/19 05:25:50;;;;;;;2.70;0.90;;;;;;;24.88;59.14;97989.31;5031711;28;20213;-70
2021/08/19 05:28:17;;;;;;;1.17;0.97;;;;;;;24.53;60.66;97995.97;5031648;28;20673;-70
2021/08/19 05:30:45;;;;;;;1.43;1.00;;;;;;;24.61;60.66;98000.00;5031470;28;20208;-70
2021/08/19 05:33:13;;;;;;;1.40;1.10;;;;;;;24.05;63.79;98013.38;5024156;28;20247;-70
2021/08/19 05:35:40;;;;;;;1.20;1.10;;;;;;;24.17;64.06;98005.63;5031211;28;20203;-70
2021/08/19 05:38:07;;;;;;;2.63;1.73;;;;;;;24.72;61.39;98010.50;5032032;28;20208;-70
2021/08/19 05:40:35;;;;;;;2.07;0.90;;;;;;;24.68;60.88;98011.41;5031489;28;20208;-70
2021/08/19 05:43:02;;;;;;;1.00;0.90;;;;;;;25.10;58.18;98023.16;5031405;28;20221;-70
2021/08/19 05:45:30;;;;;;;1.10;1.00;;;;;;;24.64;58.77;98024.81;5031454;28;20209;-70
2021/08/19 05:47:58;;;;;;;1.43;1.13;;;;;;;24.75;59.59;98023.59;5031365;28;20641;-70
2021/08/19 05:50:26;;;;;;;1.40;1.00;;;;;;;24.92;59.72;98025.81;5031007;28;20212;-70
2021/08/19 05:52:53;;;;;;;1.97;1.27;;;;;;;25.10;58.96;98027.78;5031370;28;20241;-70
2021/08/19 05:55:21;;;;;;;1.30;1.10;;;;;;;25.25;58.40;98042.09;5031332;28;20241;-70
2021/08/19 05:57:50;;;;;;;1.10;0.80;;;;;;;24.88;58.85;98038.47;5031562;28;20232;-70
2021/08/19 06:00:20;;;;;;;1.53;1.00;;;;;;;25.77;55.35;98049.25;5031185;28;20199;-70
2021/08/19 06:02:47;;;;;;;1.40;1.23;;;;;;;26.05;54.70;98042.81;5031010;28;20229;-70
2021/08/19 06:05:16;;;;;;;1.73;1.10;;;;;;;26.04;53.55;98047.47;5036932;28;20209;-70
2021/08/19 06:07:43;;;;;;;1.80;0.83;;;;;;;25.70;55.17;98046.88;5035122;28;20202;-70
2021/08/19 06:10:11;;;;;;;1.23;1.13;;;;;;;25.87;55.42;98043.63;5035148;28;20209;-70
2021/08/19 06:12:39;;;;;;;2.07;0.87;;;;;;;25.90;54.93;98048.50;5035035;28;20230;-70
2021/08/19 06:15:08;;;;;;;1.93;1.00;;;;;;;26.07;53.83;98055.09;5028227;28;20205;-70
2021/08/19 06:17:35;;;;;;;1.47;0.97;;;;;;;26.09;53.62;98052.06;5035420;28;20210;-70
2021/08/19 06:20:03;;;;;;;1.00;0.90;;;;;;;25.24;57.30;98047.81;5035112;28;20609;-70
2021/08/19 06:22:32;;;;;;;1.20;1.10;;;;;;;25.76;55.83;98050.38;5035192;28;20222;-71
2021/08/19 06:24:59;;;;;;;2.23;1.00;;;;;;;25.93;54.78;98047.94;5034306;28;20213;-71
2021/08/19 06:27:27;;;;;;;1.23;1.07;;;;;;;25.64;55.93;98047.28;5035298;28;20198;-71
2021/08/19 06:29:54;;;;;;;1.00;0.90;;;;;;;25.79;55.90;98053.31;5034709;28;20214;-71
2021/08/19 06:32:21;;;;;;;1.40;1.00;;;;;;;26.74;50.91;98070.06;5035227;28;20948;-71
2021/08/19 06:34:48;;;;;;;1.77;0.83;;;;;;;26.85;50.71;98060.56;5033494;28;20699;-71
2021/08/19 06:37:16;;;;;;;1.43;1.03;;;;;;;27.11;49.78;98069.88;5035194;28;20223;-71
2021/08/19 06:39:44;;;;;;;2.40;0.87;;;;;;;27.07;49.36;98066.91;5034790;28;20199;-71
2021/08/19 06:42:12;;;;;;;2.30;0.87;;;;;;;27.03;49.46;98068.66;5034613;28;20222;-71
2021/08/19 06:44:40;;;;;;;1.83;0.93;;;;;;;26.76;50.40;98068.63;5033119;28;20206;-71
2021/08/19 06:47:07;;;;;;;1.10;1.00;;;;;;;27.15;49.27;98068.94;5027420;28;20203;-68
2021/08/19 06:49:35;;;;;;;3.30;1.00;;;;;;;26.73;50.81;98069.25;5034369;28;20203;-71
2021/08/19 06:52:02;;;;;;;4.27;1.20;;;;;;;27.21;48.80;98064.22;5034722;28;20226;-68
2021/08/19 06:54:29;;;;;;;1.27;1.10;;;;;;;26.34;51.77;98065.28;5034538;28;20213;-71
2021/08/19 06:57:00;;;;;;;2.80;0.83;;;;;;;26.68;51.62;98057.56;5034499;28;20203;-71
2021/08/19 06:59:28;;;;;;;1.53;1.00;;;;;;;27.48;49.22;98058.69;5027637;28;20217;-71
2021/08/19 07:01:55;;;;;;;2.57;0.90;;;;;;;27.12;49.44;98053.09;5034578;28;20202;-71
2021/08/19 07:04:22;;;;;;;2.13;1.10;;;;;;;28.19;45.65;98066.88;5034377;28;20216;-68
2021/08/19 07:06:50;;;;;;;4.40;1.27;;;;;;;26.95;49.02;98065.84;5033682;28;20229;-70
2021/08/19 07:09:17;;;;;;;1.50;0.83;;;;;;;26.84;50.10;98062.47;5034163;28;20209;-71
2021/08/19 07:11:44;;;;;;;1.30;0.90;;;;;;;26.84;50.44;98053.44;5033341;28;20234;-71
2021/08/19 07:14:13;;;;;;;2.40;0.93;;;;;;;27.41;48.38;98059.09;5028334;28;20206;-71
2021/08/19 07:16:40;;;;;;;2.77;0.90;;;;;;;27.46;47.08;98058.19;5033719;28;20204;-71
2021/08/19 07:19:08;;;;;;;6.63;4.00;;;;;;;26.56;50.50;98060.81;5034340;28;20301;-68
2021/08/19 07:21:35;;;;;;;2.33;1.43;;;;;;;26.86;51.02;98060.22;5033429;28;20207;-68
2021/08/19 07:24:02;;;;;;;1.37;1.20;;;;;;;26.13;52.29;98066.75;5033752;28;20717;-68
2021/08/19 07:26:29;;;;;;;1.83;1.13;;;;;;;27.23;49.09;98056.50;5033614;28;20660;-68
2021/08/19 07:28:57;;;;;;;1.00;0.90;;;;;;;28.01;45.65;98067.88;5035262;28;20217;-71
2021/08/19 07:31:26;;;;;;;0.93;0.87;;;;;;;27.43;47.11;98061.53;5034078;28;20630;-68
2021/08/19 07:33:53;;;;;;;1.43;1.17;;;;;;;27.86;45.82;98066.31;5034249;28;20242;-70
2021/08/19 07:36:21;;;;;;;3.07;1.00;;;;;;;28.15;45.07;98068.63;5033213;28;20248;-70
2021/08/19 07:38:48;;;;;;;1.13;1.03;;;;;;;27.93;45.73;98071.38;5028893;28;20249;-70
2021/08/19 07:41:16;;;;;;;2.50;1.00;;;;;;;27.77;45.18;98070.88;5033584;28;20594;-71
2021/08/19 07:43:43;;;;;;;2.23;0.97;;;;;;;27.79;44.10;98076.09;5030741;28;20601;-70
2021/08/19 07:46:10;;;;;;;1.93;1.03;;;;;;;28.42;43.79;98074.03;5032776;28;20253;-70
2021/08/19 07:48:40;;;;;;;1.60;1.10;;;;;;;26.79;47.39;98068.03;5028665;28;20211;-70
2021/08/19 07:51:07;;;;;;;1.47;0.90;;;;;;;27.80;45.54;98069.47;5032837;28;20655;-70
2021/08/19 07:53:34;;;;;;;2.00;1.10;;;;;;;27.66;45.02;98071.44;5033423;28;20694;-70
2021/08/19 07:56:02;;;;;;;1.20;1.07;;;;;;;27.23;45.62;98070.19;5032991;28;20668;-70
2021/08/19 07:58:30;;;;;;;0.97;0.90;;;;;;;27.91;43.77;98079.09;5033579;28;20263;-70
2021/08/19 08:00:58;;;;;;;1.77;1.10;;;;;;;27.97;44.18;98070.44;5033152;28;20300;-70
2021/08/19 08:03:25;;;;;;;1.43;0.80;;;;;;;28.19;43.36;98075.94;5033974;28;20242;-70
2021/08/19 08:05:54;;;;;;;1.80;1.03;;;;;;;28.05;43.54;98077.13;5032547;28;20213;-70
2021/08/19 08:08:22;;;;;;;1.90;0.90;;;;;;;27.95;43.77;98080.94;5033493;28;20233;-70
2021/08/19 08:10:49;;;;;;;2.90;1.10;;;;;;;28.59;42.30;98088.66;5032897;28;20214;-70
2021/08/19 08:13:16;;;;;;;1.30;0.70;;;;;;;28.40;43.25;98082.56;5033321;28;20233;-70
2021/08/19 08:15:44;;;;;;;2.40;1.10;;;;;;;26.66;47.98;98076.25;5032910;28;20204;-70
2021/08/19 08:18:15;;;;;;;3.37;1.20;;;;;;;28.71;43.45;98085.31;5033022;28;20825;-70
2021/08/19 08:20:42;;;;;;;1.30;1.07;;;;;;;28.90;41.53;98083.97;5032829;28;20709;-70
2021/08/19 08:23:11;;;;;;;3.13;1.27;;;;;;;28.43;42.73;98078.41;5032990;28;20236;-70
2021/08/19 08:25:39;;;;;;;3.23;0.90;;;;;;;26.63;47.16;98085.06;5027648;28;20671;-70
2021/08/19 08:28:10;;;;;;;1.20;1.10;;;;;;;26.70;48.29;98074.53;5026008;28;20288;-70
2021/08/19 08:30:38;;;;;;;1.20;0.80;;;;;;;27.43;45.73;98077.97;5028496;28;20213;-70
2021/08/19 08:33:07;;;;;;;2.50;1.10;;;;;;;26.58;48.83;98075.03;5032379;28;20229;-70
2021/08/19 08:35:37;;;;;;;1.50;1.00;;;;;;;27.79;45.42;98082.41;5031309;28;20210;-70
2021/08/19 08:38:06;;;;;;;1.70;0.93;;;;;;;28.76;42.23;98091.50;5032588;28;20207;-70
2021/08/19 08:40:36;;;;;;;1.13;1.03;;;;;;;27.31;45.14;98085.94;5032704;28;20206;-69
2021/08/19 08:43:04;;;;;;;2.80;1.10;;;;;;;27.59;44.76;98091.06;5031928;28;20588;-69
2021/08/19 08:45:34;;;;;;;3.50;1.63;;;;;;;27.96;44.36;98085.28;5032510;28;20209;-70
2021/08/19 08:48:03;;;;;;;3.37;1.20;;;;;;;27.38;44.83;98089.06;5025045;28;20216;-70
2021/08/19 08:50:30;;;;;;;2.23;1.10;;;;;;;28.77;41.78;98087.63;5029025;28;20206;-69
2021/08/19 08:52:59;;;;;;;2.57;1.20;;;;;;;29.40;40.27;98093.53;5027904;28;20234;-70
2021/08/19 08:55:26;;;;;;;1.97;1.10;;;;;;;29.69;39.13;98093.78;5032346;28;20568;-70
2021/08/19 08:57:55;;;;;;;4.63;1.27;;;;;;;29.55;38.92;98095.88;5032227;28;20208;-70
2021/08/19 09:00:22;;;;;;;2.15;0.95;;;;;;;29.07;40.53;98092.31;5032169;28;20684;-70
2021/08/19 09:02:50;;;;;;;1.70;1.00;;;;;;;28.76;41.60;98098.91;5028335;28;20226;-70
2021/08/19 09:05:18;;;;;;;1.20;0.90;;;;;;;28.34;42.81;98091.22;5031984;28;20203;-70
2021/08/19 09:07:50;;;;;;;3.10;1.00;;;;;;;27.88;44.78;98088.75;5028994;28;20206;-70
2021/08/19 09:10:19;;;;;;;2.93;0.97;;;;;;;28.19;44.66;98086.94;5031767;28;20679;-70
2021/08/19 09:12:47;;;;;;;4.90;1.50;;;;;;;28.20;44.18;98090.47;5029940;28;20239;-70
2021/08/19 09:15:17;;;;;;;1.33;1.07;;;;;;;27.16;46.81;98084.28;5031851;28;20207;-70
2021/08/19 09:17:49;;;;;;;4.43;1.37;;;;;;;27.14;47.15;98091.16;5030162;28;20235;-70
2021/08/19 09:20:17;;;;;;;2.60;0.90;;;;;;;27.67;47.03;98078.56;5031629;28;20711;-70
2021/08/19 09:22:55;;;;;;;1.13;0.93;;;;;;;28.19;45.13;98075.94;5031696;28;20596;-70
2021/08/19 09:25:25;;;;;;;2.33;1.20;;;;;;;28.08;45.23;98077.28;5031833;28;20207;-68
2021/08/19 09:28:28;;;;;;;10.07;1.70;;;;;;;29.41;41.17;98095.19;5030018;28;20212;-69
2021/08/19 09:30:58;;;;;;;2.33;0.90;;;;;;;29.40;41.21;98095.50;5026570;28;20211;-69
2021/08/19 09:33:27;;;;;;;2.10;0.90;;;;;;;29.01;42.48;98085.34;5028939;28;20603;-70
2021/08/19 09:35:56;;;;;;;2.90;1.00;;;;;;;29.63;40.26;98080.50;5024628;28;20224;-69
2021/08/19 09:38:26;;;;;;;1.20;0.83;;;;;;;30.21;39.08;98092.69;5031606;28;20206;-69
2021/08/19 09:41:05;;;;;;;1.88;0.80;;;;;;;29.34;39.19;98089.31;5031699;28;20213;-69
2021/08/19 09:43:40;;;;;;;2.72;1.10;;;;;;;29.48;39.93;98080.94;5031483;28;20222;-69
2021/08/19 09:46:09;;;;;;;1.10;1.00;;;;;;;30.60;37.06;98088.91;5029967;28;20197;-70
2021/08/19 09:48:36;;;;;;;1.52;0.90;;;;;;;28.94;39.92;98086.91;5030351;28;20206;-70
2021/08/19 09:51:15;;;;;;;1.90;0.70;;;;;;;29.20;39.73;98083.16;5026066;28;20233;-71
2021/08/19 09:53:46;;;;;;;2.50;1.00;;;;;;;30.69;36.86;98089.72;5031419;28;20229;-69
2021/08/19 09:56:25;;;;;;;1.08;0.95;;;;;;;30.35;37.87;98092.53;5024328;28;20213;-70
2021/08/19 09:58:53;;;;;;;2.15;0.82;;;;;;;30.90;35.35;98098.88;5029252;28;20659;-70
2021/08/19 10:01:21;;;;;;;1.00;0.90;;;;;;;31.25;33.80;98108.66;5031734;28;20198;-69
2021/08/19 10:03:48;;;;;;;2.42;0.70;;;;;;;31.19;33.06;98102.50;5028059;28;20238;-70
2021/08/19 10:06:16;;;;;;;1.67;0.80;;;;;;;31.06;34.50;98089.75;5031234;28;20206;-69
2021/08/19 10:08:43;;;;;;;0.70;0.70;;;;;;;31.82;32.83;98085.78;5031301;28;20206;-71
2021/08/19 10:11:12;;;;;;;0.80;0.80;;;;;;;31.02;34.91;98085.22;5031517;28;20199;-71
2021/08/19 10:13:39;;;;;;;1.33;0.75;;;;;;;31.56;33.00;98087.06;5031277;28;20230;-70
2021/08/19 10:16:09;;;;;;;0.85;0.77;;;;;;;31.51;33.42;98084.50;5024239;28;20209;-71
2021/08/19 10:18:39;;;;;;;1.70;0.88;;;;;;;32.02;32.07;98092.47;5027227;28;20203;-69
2021/08/19 10:21:10;;;;;;;0.82;0.70;;;;;;;32.29;30.97;98098.25;5031062;28;20209;-68
2021/08/19 10:23:39;;;;;;;0.73;0.70;;;;;;;32.07;30.88;98093.06;5031562;28;20230;-71
2021/08/19 10:26:08;;;;;;;0.98;0.73;;;;;;;31.90;30.41;98090.44;5030285;28;20565;-69
2021/08/19 10:28:50;;;;;;;2.17;0.93;;;;;;;32.20;30.27;98091.16;5031392;28;20325;-69
2021/08/19 10:31:44;;;;;;;1.20;0.85;;;;;;;32.47;30.90;98090.59;5025694;28;20207;-71
2021/08/19 10:34:14;;;;;;;1.35;0.82;;;;;;;31.17;32.30;98090.19;5024499;28;20258;-69
2021/08/19 10:36:53;;;;;;;0.75;0.65;;;;;;;31.45;31.53;98086.66;5031039;28;20210;-69
2021/08/19 10:39:34;;;;;;;1.40;0.93;;;;;;;31.16;32.31;98086.63;5030313;28;20285;-69
2021/08/19 10:42:01;;;;;;;0.95;0.77;;;;;;;30.99;32.90;98091.41;5022436;28;20237;-69
2021/08/19 10:44:31;;;;;;;0.75;0.70;;;;;;;31.82;31.11;98090.50;5028477;28;20203;-69
2021/08/19 10:46:58;;;;;;;1.92;0.82;;;;;;;32.15;30.34;98091.38;5030732;28;20211;-69
2021/08/19 10:49:35;;;;;;;0.70;0.70;;;;;;;31.42;31.02;98092.84;5031357;28;20207;-69
2021/08/19 10:52:30;;;;;;;0.98;0.88;;;;;;;30.31;34.23;98064.03;5031540;28;20228;-69
2021/08/19 10:55:17;;;;;;;1.17;0.70;;;;;;;30.94;32.25;98070.34;5034088;28;20671;-69
2021/08/19 10:57:49;;;;;;;1.60;0.90;;;;;;;30.03;34.00;98070.97;5031759;28;20814;-69
2021/08/19 11:00:17;;;;;;;2.05;0.70;;;;;;;30.27;34.28;98065.81;5034616;28;20203;-70
2021/08/19 11:02:46;;;;;;;1.83;0.93;;;;;;;31.26;32.79;98069.72;5033827;28;20254;-70
2021/08/19 11:05:37;;;;;;;1.70;0.82;;;;;;;31.34;32.50;98068.88;5034010;28;20686;-70
2021/08/19 11:08:05;;;;;;;0.73;0.73;;;;;;;31.32;33.02;98065.63;5034585;28;20203;-70
2021/08/19 11:10:35;;;;;;;1.40;0.75;;;;;;;30.72;34.23;98069.78;5034107;28;20238;-70
2021/08/19 11:13:04;;;;;;;4.63;0.85;;;;;;;30.33;34.99;98067.25;5033846;28;20226;-70
2021/08/19 11:15:31;;;;;;;1.33;0.90;;;;;;;31.18;33.84;98058.72;5031866;28;20207;-70
2021/08/19 11:18:00;;;;;;;1.60;1.00;;;;;;;30.66;34.54;98065.59;5034468;28;20207;-70
2021/08/19 11:20:30;;;;;;;1.55;1.10;;;;;;;31.30;32.95;98061.59;5034084;28;20207;-71
2021/08/19 11:23:05;;;;;;;1.55;1.13;;;;;;;30.89;34.74;98066.94;5033999;28;20226;-70
2021/08/19 11:25:33;;;;;;;2.42;1.00;;;;;;;31.20;33.90;98060.03;5033597;28;20202;-70
2021/08/19 11:28:11;;;;;;;1.55;1.05;;;;;;;29.54;35.98;98055.72;5033218;28;20214;-70
2021/08/19 11:30:40;;;;;;;1.65;1.17;;;;;;;31.11;34.09;98064.75;5033626;28;20206;-71
2021/08/19 11:33:12;;;;;;;1.30;0.90;;;;;;;31.15;33.85;98064.88;5033761;28;20233;-70
2021/08/19 11:35:41;;;;;;;1.10;1.00;;;;;;;30.97;34.26;98066.13;5033941;28;20250;-70
2021/08/19 11:38:12;;;;;;;2.20;0.90;;;;;;;30.39;35.29;98065.94;5033930;28;20210;-68
2021/08/19 11:40:40;;;;;;;1.52;1.00;;;;;;;30.19;35.84;98069.38;5033646;28;20313;-69